sensor_id;sensor_type;location;lat;lon;timestamp;P1;durP1;ratioP1;P2;durP2;ratioP2
36353;SDS011;22383;51.114;13.666;2022-07-30T07:34:09;21.33;;;14.13;;
36353;SDS011;22383;51.114;13.666;2022-07-30T07:36:42;18.05;;;14.55;;
36353;SDS011;22383;51.114;13.666;2022-07-30T07:39:10;18.08;;;14.88;;
36353;SDS011;22383;51.114;13.666;2022-07-30T07:41:42;17.63;;;14.27;;
36353;SDS011;22383;51.114;13.666;2022-07-30T07:44:26;16.67;;;14.45;;
36353;SDS011;22383;51.114;13.666;2022-07-30T07:46:53;21.48;;;16.17;;
36353;SDS011;22383;51.114;13.666;2022-07-30T07:49:24;19.83;;;15.75;;
36353;SDS011;22383;51.114;13.666;2022-07-30T07:51:51;18.85;;;14.57;;
36353;SDS011;22383;51.114;13.666;2022-07-30T07:56:50;20.67;;;15.10;;
36353;SDS011;22383;51.114;13.666;2022-07-30T07:59:35;18.25;;;14.02;;
36353;SDS011;22383;51.114;13.666;2022-07-30T08:02:18;18.40;;;13.90;;
36353;SDS011;22383;51.114;13.666;2022-07-30T08:04:55;20.05;;;14.93;;
36353;SDS011;22383;51.114;13.666;2022-07-30T08:07:52;17.98;;;14.68;;
36353;SDS011;22383;51.114;13.666;2022-07-30T08:10:46;15.70;;;13.98;;
36353;SDS011;22383;51.114;13.666;2022-07-30T08:13:16;18.63;;;14.15;;
36353;SDS011;22383;51.114;13.666;2022-07-30T08:16:22;19.02;;;14.73;;
36353;SDS011;22383;51.114;13.666;2022-07-30T08:19:08;18.58;;;13.77;;
36353;SDS011;22383;51.114;13.666;2022-07-30T08:21:38;15.27;;;11.70;;
36353;SDS011;22383;51.114;13.666;2022-07-30T08:24:06;12.23;;;10.02;;
36353;SDS011;22383;51.114;13.666;2022-07-30T08:29:09;16.65;;;11.15;;
36353;SDS011;22383;51.114;13.666;2022-07-30T08:31:43;15.60;;;10.48;;
36353;SDS011;22383;51.114;13.666;2022-07-30T08:36:39;18.05;;;9.70;;
36353;SDS011;22383;51.114;13.666;2022-07-30T08:39:07;13.23;;;9.07;;
36353;SDS011;22383;51.114;13.666;2022-07-30T08:41:35;11.48;;;9.73;;
36353;SDS011;22383;51.114;13.666;2022-07-30T08:44:04;13.90;;;9.77;;
36353;SDS011;22383;51.114;13.666;2022-07-30T08:46:42;14.93;;;10.63;;
36353;SDS011;22383;51.114;13.666;2022-07-30T08:49:25;12.45;;;9.85;;
36353;SDS011;22383;51.114;13.666;2022-07-30T08:51:54;13.55;;;9.25;;
36353;SDS011;22383;51.114;13.666;2022-07-30T08:54:48;12.30;;;10.18;;
36353;SDS011;22383;51.114;13.666;2022-07-30T08:57:15;16.20;;;10.52;;
36353;SDS011;22383;51.114;13.666;2022-07-30T08:59:43;17.42;;;11.13;;
36353;SDS011;22383;51.114;13.666;2022-07-30T09:02:33;14.52;;;10.93;;
36353;SDS011;22383;51.114;13.666;2022-07-30T09:05:03;14.68;;;11.80;;
36353;SDS011;22383;51.114;13.666;2022-07-30T09:07:36;19.95;;;11.80;;
36353;SDS011;22383;51.114;13.666;2022-07-30T09:10:25;15.40;;;12.07;;
36353;SDS011;22383;51.114;13.666;2022-07-30T09:12:52;15.95;;;11.43;;
36353;SDS011;22383;51.114;13.666;2022-07-30T09:15:20;12.98;;;11.10;;
36353;SDS011;22383;51.114;13.666;2022-07-30T09:17:51;14.20;;;12.70;;
36353;SDS011;22383;51.114;13.666;2022-07-30T09:20:23;14.60;;;13.10;;
36353;SDS011;22383;51.114;13.666;2022-07-30T09:22:57;19.15;;;14.73;;
36353;SDS011;22383;51.114;13.666;2022-07-30T09:25:46;18.17;;;15.45;;
36353;SDS011;22383;51.114;13.666;2022-07-30T09:28:35;17.63;;;15.23;;
36353;SDS011;22383;51.114;13.666;2022-07-30T09:31:18;18.00;;;15.73;;
36353;SDS011;22383;51.114;13.666;2022-07-30T09:34:34;21.85;;;16.65;;
36353;SDS011;22383;51.114;13.666;2022-07-30T09:37:03;17.27;;;15.55;;
36353;SDS011;22383;51.114;13.666;2022-07-30T09:40:16;21.55;;;17.33;;
36353;SDS011;22383;51.114;13.666;2022-07-30T09:43:08;18.75;;;15.98;;
36353;SDS011;22383;51.114;13.666;2022-07-30T09:45:49;21.85;;;15.55;;
36353;SDS011;22383;51.114;13.666;2022-07-30T09:48:27;19.30;;;16.08;;
36353;SDS011;22383;51.114;13.666;2022-07-30T09:50:56;24.02;;;16.15;;
36353;SDS011;22383;51.114;13.666;2022-07-30T09:53:23;18.30;;;16.25;;
36353;SDS011;22383;51.114;13.666;2022-07-30T09:55:52;18.35;;;15.98;;
36353;SDS011;22383;51.114;13.666;2022-07-30T09:58:21;18.85;;;14.88;;
36353;SDS011;22383;51.114;13.666;2022-07-30T10:00:56;16.55;;;14.45;;
36353;SDS011;22383;51.114;13.666;2022-07-30T10:03:53;17.17;;;15.18;;
36353;SDS011;22383;51.114;13.666;2022-07-30T10:06:40;20.25;;;14.38;;
36353;SDS011;22383;51.114;13.666;2022-07-30T10:11:57;17.25;;;14.65;;
36353;SDS011;22383;51.114;13.666;2022-07-30T10:14:30;17.35;;;14.13;;
36353;SDS011;22383;51.114;13.666;2022-07-30T10:17:08;16.45;;;12.82;;
36353;SDS011;22383;51.114;13.666;2022-07-30T10:19:35;15.98;;;13.60;;
36353;SDS011;22383;51.114;13.666;2022-07-30T10:22:26;15.63;;;13.90;;
36353;SDS011;22383;51.114;13.666;2022-07-30T10:25:16;18.88;;;14.60;;
36353;SDS011;22383;51.114;13.666;2022-07-30T10:28:10;16.20;;;14.50;;
36353;SDS011;22383;51.114;13.666;2022-07-30T10:30:37;19.35;;;13.98;;
36353;SDS011;22383;51.114;13.666;2022-07-30T10:33:05;17.23;;;13.77;;
36353;SDS011;22383;51.114;13.666;2022-07-30T10:35:34;18.70;;;12.65;;
36353;SDS011;22383;51.114;13.666;2022-07-30T10:38:08;17.02;;;13.13;;
36353;SDS011;22383;51.114;13.666;2022-07-30T10:40:51;17.00;;;12.25;;
36353;SDS011;22383;51.114;13.666;2022-07-30T10:43:32;13.30;;;11.70;;
36353;SDS011;22383;51.114;13.666;2022-07-30T10:49:11;15.80;;;11.82;;
36353;SDS011;22383;51.114;13.666;2022-07-30T10:51:46;13.23;;;11.35;;
36353;SDS011;22383;51.114;13.666;2022-07-30T10:57:18;15.07;;;11.20;;
36353;SDS011;22383;51.114;13.666;2022-07-30T11:02:27;13.02;;;11.18;;
36353;SDS011;22383;51.114;13.666;2022-07-30T11:05:44;16.95;;;11.30;;
36353;SDS011;22383;51.114;13.666;2022-07-30T11:10:58;12.48;;;9.05;;
36353;SDS011;22383;51.114;13.666;2022-07-30T11:13:59;12.93;;;9.40;;
36353;SDS011;22383;51.114;13.666;2022-07-30T11:19:01;13.10;;;9.70;;
36353;SDS011;22383;51.114;13.666;2022-07-30T11:25:05;14.45;;;10.43;;
36353;SDS011;22383;51.114;13.666;2022-07-30T11:27:40;11.75;;;10.55;;
36353;SDS011;22383;51.114;13.666;2022-07-30T11:32:46;12.77;;;9.88;;
36353;SDS011;22383;51.114;13.666;2022-07-30T11:35:15;13.50;;;9.77;;
36353;SDS011;22383;51.114;13.666;2022-07-30T11:40:30;11.93;;;9.75;;
36353;SDS011;22383;51.114;13.666;2022-07-30T11:46:15;14.02;;;9.40;;
36353;SDS011;22383;51.114;13.666;2022-07-30T11:48:55;12.93;;;8.68;;
36353;SDS011;22383;51.114;13.666;2022-07-30T11:51:24;10.52;;;8.02;;
36353;SDS011;22383;51.114;13.666;2022-07-30T11:54:03;13.43;;;7.57;;
36353;SDS011;22383;51.114;13.666;2022-07-30T11:56:31;12.77;;;7.75;;
36353;SDS011;22383;51.114;13.666;2022-07-30T11:59:06;14.10;;;8.23;;
36353;SDS011;22383;51.114;13.666;2022-07-30T12:01:34;11.45;;;7.65;;
36353;SDS011;22383;51.114;13.666;2022-07-30T12:04:02;10.40;;;8.35;;
36353;SDS011;22383;51.114;13.666;2022-07-30T12:06:47;11.70;;;8.00;;
36353;SDS011;22383;51.114;13.666;2022-07-30T12:09:24;16.60;;;8.48;;
36353;SDS011;22383;51.114;13.666;2022-07-30T12:11:55;13.60;;;8.85;;
36353;SDS011;22383;51.114;13.666;2022-07-30T12:14:23;10.85;;;7.40;;
36353;SDS011;22383;51.114;13.666;2022-07-30T12:16:51;12.15;;;9.05;;
36353;SDS011;22383;51.114;13.666;2022-07-30T12:19:20;17.92;;;9.90;;
36353;SDS011;22383;51.114;13.666;2022-07-30T12:21:47;10.93;;;9.63;;
36353;SDS011;22383;51.114;13.666;2022-07-30T12:24:25;10.82;;;9.63;;
36353;SDS011;22383;51.114;13.666;2022-07-30T12:27:02;10.68;;;9.48;;
36353;SDS011;22383;51.114;13.666;2022-07-30T12:29:33;15.30;;;10.60;;
36353;SDS011;22383;51.114;13.666;2022-07-30T12:34:29;19.60;;;9.65;;
36353;SDS011;22383;51.114;13.666;2022-07-30T12:37:05;15.38;;;9.38;;
36353;SDS011;22383;51.114;13.666;2022-07-30T12:39:33;14.70;;;9.00;;
36353;SDS011;22383;51.114;13.666;2022-07-30T12:42:01;13.80;;;9.07;;
36353;SDS011;22383;51.114;13.666;2022-07-30T12:47:22;13.38;;;7.97;;
36353;SDS011;22383;51.114;13.666;2022-07-30T12:49:52;15.25;;;8.00;;
36353;SDS011;22383;51.114;13.666;2022-07-30T12:52:21;12.35;;;8.60;;
36353;SDS011;22383;51.114;13.666;2022-07-30T12:55:10;13.05;;;8.25;;
36353;SDS011;22383;51.114;13.666;2022-07-30T13:00:27;12.30;;;7.93;;
36353;SDS011;22383;51.114;13.666;2022-07-30T13:03:22;7.97;;;6.05;;
36353;SDS011;22383;51.114;13.666;2022-07-30T13:05:52;10.23;;;7.72;;
36353;SDS011;22383;51.114;13.666;2022-07-30T13:08:44;16.08;;;6.45;;
36353;SDS011;22383;51.114;13.666;2022-07-30T13:11:15;7.45;;;5.20;;
36353;SDS011;22383;51.114;13.666;2022-07-30T13:13:43;10.35;;;5.60;;
36353;SDS011;22383;51.114;13.666;2022-07-30T13:16:19;18.45;;;7.68;;
36353;SDS011;22383;51.114;13.666;2022-07-30T13:18:46;11.13;;;8.50;;
36353;SDS011;22383;51.114;13.666;2022-07-30T13:21:14;13.80;;;8.55;;
36353;SDS011;22383;51.114;13.666;2022-07-30T13:23:41;17.25;;;9.00;;
36353;SDS011;22383;51.114;13.666;2022-07-30T13:26:09;12.35;;;8.80;;
36353;SDS011;22383;51.114;13.666;2022-07-30T13:28:36;15.32;;;9.05;;
36353;SDS011;22383;51.114;13.666;2022-07-30T13:31:05;13.38;;;8.98;;
36353;SDS011;22383;51.114;13.666;2022-07-30T13:33:35;14.38;;;9.80;;
36353;SDS011;22383;51.114;13.666;2022-07-30T13:36:03;13.65;;;9.27;;
36353;SDS011;22383;51.114;13.666;2022-07-30T13:38:31;11.98;;;9.45;;
36353;SDS011;22383;51.114;13.666;2022-07-30T13:40:59;12.15;;;8.98;;
36353;SDS011;22383;51.114;13.666;2022-07-30T13:43:28;13.45;;;8.70;;
36353;SDS011;22383;51.114;13.666;2022-07-30T13:45:59;10.93;;;8.32;;
36353;SDS011;22383;51.114;13.666;2022-07-30T13:48:29;14.13;;;9.68;;
36353;SDS011;22383;51.114;13.666;2022-07-30T13:50:56;12.18;;;8.98;;
36353;SDS011;22383;51.114;13.666;2022-07-30T13:53:25;12.63;;;9.55;;
36353;SDS011;22383;51.114;13.666;2022-07-30T13:55:53;11.35;;;9.45;;
36353;SDS011;22383;51.114;13.666;2022-07-30T13:58:20;15.30;;;9.23;;
36353;SDS011;22383;51.114;13.666;2022-07-30T14:00:48;14.45;;;10.00;;
36353;SDS011;22383;51.114;13.666;2022-07-30T14:03:15;13.32;;;8.20;;
36353;SDS011;22383;51.114;13.666;2022-07-30T14:05:42;10.48;;;8.50;;
36353;SDS011;22383;51.114;13.666;2022-07-30T14:08:10;13.18;;;8.50;;
36353;SDS011;22383;51.114;13.666;2022-07-30T14:10:38;8.95;;;7.57;;
36353;SDS011;22383;51.114;13.666;2022-07-30T14:13:06;12.75;;;8.18;;
36353;SDS011;22383;51.114;13.666;2022-07-30T14:15:41;15.30;;;6.68;;
36353;SDS011;22383;51.114;13.666;2022-07-30T14:18:08;11.63;;;6.78;;
36353;SDS011;22383;51.114;13.666;2022-07-30T14:20:36;13.52;;;6.50;;
36353;SDS011;22383;51.114;13.666;2022-07-30T14:23:03;9.52;;;6.40;;
36353;SDS011;22383;51.114;13.666;2022-07-30T14:25:30;10.85;;;6.38;;
36353;SDS011;22383;51.114;13.666;2022-07-30T14:27:58;14.13;;;8.02;;
36353;SDS011;22383;51.114;13.666;2022-07-30T14:32:52;8.43;;;6.78;;
36353;SDS011;22383;51.114;13.666;2022-07-30T14:35:27;13.15;;;7.53;;
36353;SDS011;22383;51.114;13.666;2022-07-30T14:37:55;8.95;;;6.80;;
36353;SDS011;22383;51.114;13.666;2022-07-30T14:40:22;14.18;;;7.15;;
36353;SDS011;22383;51.114;13.666;2022-07-30T14:42:49;12.18;;;6.75;;
36353;SDS011;22383;51.114;13.666;2022-07-30T14:45:17;10.10;;;6.15;;
36353;SDS011;22383;51.114;13.666;2022-07-30T14:47:44;12.10;;;5.35;;
36353;SDS011;22383;51.114;13.666;2022-07-30T14:50:11;5.57;;;2.97;;
36353;SDS011;22383;51.114;13.666;2022-07-30T14:52:39;5.03;;;2.40;;
36353;SDS011;22383;51.114;13.666;2022-07-30T14:55:07;6.22;;;2.80;;
36353;SDS011;22383;51.114;13.666;2022-07-30T14:57:35;6.20;;;2.78;;
36353;SDS011;22383;51.114;13.666;2022-07-30T15:00:03;6.68;;;2.90;;
36353;SDS011;22383;51.114;13.666;2022-07-30T15:02:36;10.75;;;2.75;;
36353;SDS011;22383;51.114;13.666;2022-07-30T15:05:04;3.72;;;2.58;;
36353;SDS011;22383;51.114;13.666;2022-07-30T15:07:32;9.35;;;3.00;;
36353;SDS011;22383;51.114;13.666;2022-07-30T15:10:01;6.55;;;2.53;;
36353;SDS011;22383;51.114;13.666;2022-07-30T15:12:28;7.60;;;2.60;;
36353;SDS011;22383;51.114;13.666;2022-07-30T15:17:23;3.08;;;2.50;;
36353;SDS011;22383;51.114;13.666;2022-07-30T15:19:50;3.53;;;2.05;;
36353;SDS011;22383;51.114;13.666;2022-07-30T15:24:46;4.28;;;1.90;;
36353;SDS011;22383;51.114;13.666;2022-07-30T15:27:14;10.25;;;2.58;;
36353;SDS011;22383;51.114;13.666;2022-07-30T15:32:10;4.88;;;2.10;;
36353;SDS011;22383;51.114;13.666;2022-07-30T15:34:37;3.88;;;1.92;;
36353;SDS011;22383;51.114;13.666;2022-07-30T15:37:04;2.20;;;1.90;;
36353;SDS011;22383;51.114;13.666;2022-07-30T15:39:32;3.90;;;1.95;;
36353;SDS011;22383;51.114;13.666;2022-07-30T15:42:00;4.47;;;2.17;;
36353;SDS011;22383;51.114;13.666;2022-07-30T15:44:29;1.98;;;1.38;;
36353;SDS011;22383;51.114;13.666;2022-07-30T15:46:57;4.45;;;1.70;;
36353;SDS011;22383;51.114;13.666;2022-07-30T15:49:25;3.15;;;1.77;;
36353;SDS011;22383;51.114;13.666;2022-07-30T15:51:53;4.07;;;2.13;;
36353;SDS011;22383;51.114;13.666;2022-07-30T15:54:23;3.60;;;2.22;;
36353;SDS011;22383;51.114;13.666;2022-07-30T15:56:50;5.88;;;2.08;;
36353;SDS011;22383;51.114;13.666;2022-07-30T15:59:20;4.05;;;2.00;;
36353;SDS011;22383;51.114;13.666;2022-07-30T16:01:47;5.90;;;2.05;;
36353;SDS011;22383;51.114;13.666;2022-07-30T16:04:15;5.43;;;2.13;;
36353;SDS011;22383;51.114;13.666;2022-07-30T16:06:48;4.57;;;2.25;;
36353;SDS011;22383;51.114;13.666;2022-07-30T16:09:19;3.13;;;2.00;;
36353;SDS011;22383;51.114;13.666;2022-07-30T16:11:46;4.00;;;2.13;;
36353;SDS011;22383;51.114;13.666;2022-07-30T16:14:15;5.38;;;2.03;;
36353;SDS011;22383;51.114;13.666;2022-07-30T16:16:42;3.88;;;2.20;;
36353;SDS011;22383;51.114;13.666;2022-07-30T16:19:10;4.90;;;2.20;;
36353;SDS011;22383;51.114;13.666;2022-07-30T16:21:37;2.53;;;2.30;;
36353;SDS011;22383;51.114;13.666;2022-07-30T16:24:04;6.90;;;2.22;;
36353;SDS011;22383;51.114;13.666;2022-07-30T16:26:32;6.00;;;2.28;;
36353;SDS011;22383;51.114;13.666;2022-07-30T16:29:02;4.47;;;1.98;;
36353;SDS011;22383;51.114;13.666;2022-07-30T16:31:30;3.88;;;2.15;;
36353;SDS011;22383;51.114;13.666;2022-07-30T16:33:58;5.82;;;2.08;;
36353;SDS011;22383;51.114;13.666;2022-07-30T16:36:25;4.57;;;2.10;;
36353;SDS011;22383;51.114;13.666;2022-07-30T16:38:52;3.92;;;2.10;;
36353;SDS011;22383;51.114;13.666;2022-07-30T16:41:19;3.83;;;2.13;;
36353;SDS011;22383;51.114;13.666;2022-07-30T16:43:47;6.50;;;2.60;;
36353;SDS011;22383;51.114;13.666;2022-07-30T16:46:14;7.93;;;2.20;;
36353;SDS011;22383;51.114;13.666;2022-07-30T16:48:44;6.75;;;2.28;;
36353;SDS011;22383;51.114;13.666;2022-07-30T16:51:16;5.82;;;2.70;;
36353;SDS011;22383;51.114;13.666;2022-07-30T16:53:44;8.73;;;3.05;;
36353;SDS011;22383;51.114;13.666;2022-07-30T16:56:12;9.35;;;2.60;;
36353;SDS011;22383;51.114;13.666;2022-07-30T16:58:40;51.72;;;4.68;;
36353;SDS011;22383;51.114;13.666;2022-07-30T17:01:07;7.05;;;2.35;;
36353;SDS011;22383;51.114;13.666;2022-07-30T17:06:02;8.35;;;2.53;;
36353;SDS011;22383;51.114;13.666;2022-07-30T17:08:29;2.90;;;2.17;;
36353;SDS011;22383;51.114;13.666;2022-07-30T17:10:56;33.03;;;4.15;;
36353;SDS011;22383;51.114;13.666;2022-07-30T17:13:23;4.47;;;2.42;;
36353;SDS011;22383;51.114;13.666;2022-07-30T17:15:51;6.25;;;2.80;;
36353;SDS011;22383;51.114;13.666;2022-07-30T17:18:18;5.50;;;2.50;;
36353;SDS011;22383;51.114;13.666;2022-07-30T17:20:45;8.05;;;3.00;;
36353;SDS011;22383;51.114;13.666;2022-07-30T17:23:13;4.40;;;2.28;;
36353;SDS011;22383;51.114;13.666;2022-07-30T17:25:40;4.45;;;2.45;;
36353;SDS011;22383;51.114;13.666;2022-07-30T17:28:07;8.00;;;2.25;;
36353;SDS011;22383;51.114;13.666;2022-07-30T17:30:35;4.40;;;2.58;;
36353;SDS011;22383;51.114;13.666;2022-07-30T17:33:02;27.83;;;4.68;;
36353;SDS011;22383;51.114;13.666;2022-07-30T17:35:32;17.58;;;9.05;;
36353;SDS011;22383;51.114;13.666;2022-07-30T17:38:00;10.93;;;7.68;;
36353;SDS011;22383;51.114;13.666;2022-07-30T17:40:27;11.57;;;8.15;;
36353;SDS011;22383;51.114;13.666;2022-07-30T17:42:58;13.07;;;8.30;;
36353;SDS011;22383;51.114;13.666;2022-07-30T17:45:31;13.27;;;9.43;;
36353;SDS011;22383;51.114;13.666;2022-07-30T17:47:59;11.02;;;9.23;;
36353;SDS011;22383;51.114;13.666;2022-07-30T17:50:28;17.00;;;9.60;;
36353;SDS011;22383;51.114;13.666;2022-07-30T17:52:56;13.85;;;10.98;;
36353;SDS011;22383;51.114;13.666;2022-07-30T17:55:24;11.52;;;10.20;;
36353;SDS011;22383;51.114;13.666;2022-07-30T17:57:51;13.68;;;10.15;;
36353;SDS011;22383;51.114;13.666;2022-07-30T18:00:18;15.57;;;10.18;;
36353;SDS011;22383;51.114;13.666;2022-07-30T18:02:46;15.25;;;10.60;;
36353;SDS011;22383;51.114;13.666;2022-07-30T18:05:13;16.27;;;10.57;;
36353;SDS011;22383;51.114;13.666;2022-07-30T18:10:09;16.23;;;10.32;;
36353;SDS011;22383;51.114;13.666;2022-07-30T18:12:37;16.48;;;11.15;;
36353;SDS011;22383;51.114;13.666;2022-07-30T18:17:45;19.42;;;11.30;;
36353;SDS011;22383;51.114;13.666;2022-07-30T18:20:13;13.13;;;10.30;;
36353;SDS011;22383;51.114;13.666;2022-07-30T18:22:41;13.90;;;10.70;;
36353;SDS011;22383;51.114;13.666;2022-07-30T18:27:45;14.02;;;11.55;;
36353;SDS011;22383;51.114;13.666;2022-07-30T18:30:14;13.45;;;12.05;;
36353;SDS011;22383;51.114;13.666;2022-07-30T18:32:42;14.48;;;11.73;;
36353;SDS011;22383;51.114;13.666;2022-07-30T18:35:10;15.20;;;12.15;;
36353;SDS011;22383;51.114;13.666;2022-07-30T18:37:41;14.57;;;12.13;;
36353;SDS011;22383;51.114;13.666;2022-07-30T18:40:09;16.65;;;12.48;;
36353;SDS011;22383;51.114;13.666;2022-07-30T18:42:39;13.52;;;12.10;;
36353;SDS011;22383;51.114;13.666;2022-07-30T18:45:07;14.15;;;12.63;;
36353;SDS011;22383;51.114;13.666;2022-07-30T18:47:36;16.13;;;13.93;;
36353;SDS011;22383;51.114;13.666;2022-07-30T18:50:03;17.40;;;13.43;;
36353;SDS011;22383;51.114;13.666;2022-07-30T18:54:59;16.02;;;13.20;;
36353;SDS011;22383;51.114;13.666;2022-07-30T18:57:27;21.27;;;14.13;;
36353;SDS011;22383;51.114;13.666;2022-07-30T18:59:54;15.93;;;13.57;;
36353;SDS011;22383;51.114;13.666;2022-07-30T19:02:21;19.25;;;13.60;;
36353;SDS011;22383;51.114;13.666;2022-07-30T19:04:52;16.40;;;13.93;;
36353;SDS011;22383;51.114;13.666;2022-07-30T19:07:19;17.55;;;14.32;;
36353;SDS011;22383;51.114;13.666;2022-07-30T19:09:49;20.15;;;13.88;;
36353;SDS011;22383;51.114;13.666;2022-07-30T19:12:19;16.27;;;13.80;;
36353;SDS011;22383;51.114;13.666;2022-07-30T19:14:47;20.70;;;14.82;;
36353;SDS011;22383;51.114;13.666;2022-07-30T19:17:14;17.60;;;15.20;;
36353;SDS011;22383;51.114;13.666;2022-07-30T19:19:42;21.60;;;14.88;;
36353;SDS011;22383;51.114;13.666;2022-07-30T19:22:09;19.85;;;15.50;;
36353;SDS011;22383;51.114;13.666;2022-07-30T19:24:37;17.15;;;15.23;;
36353;SDS011;22383;51.114;13.666;2022-07-30T19:27:04;20.73;;;15.68;;
36353;SDS011;22383;51.114;13.666;2022-07-30T19:29:31;18.45;;;15.88;;
36353;SDS011;22383;51.114;13.666;2022-07-30T19:31:58;18.80;;;14.70;;
36353;SDS011;22383;51.114;13.666;2022-07-30T19:34:26;18.45;;;15.98;;
36353;SDS011;22383;51.114;13.666;2022-07-30T19:36:54;19.33;;;14.90;;
36353;SDS011;22383;51.114;13.666;2022-07-30T19:39:21;19.83;;;15.63;;
36353;SDS011;22383;51.114;13.666;2022-07-30T19:41:52;21.83;;;16.35;;
36353;SDS011;22383;51.114;13.666;2022-07-30T19:44:19;19.95;;;16.77;;
36353;SDS011;22383;51.114;13.666;2022-07-30T19:46:47;20.25;;;17.20;;
36353;SDS011;22383;51.114;13.666;2022-07-30T19:49:20;19.05;;;17.00;;
36353;SDS011;22383;51.114;13.666;2022-07-30T19:54:42;20.27;;;16.33;;
36353;SDS011;22383;51.114;13.666;2022-07-30T19:57:09;18.83;;;16.63;;
36353;SDS011;22383;51.114;13.666;2022-07-30T19:59:37;20.42;;;16.30;;
36353;SDS011;22383;51.114;13.666;2022-07-30T20:02:24;22.60;;;17.27;;
36353;SDS011;22383;51.114;13.666;2022-07-30T20:07:20;21.02;;;16.65;;
36353;SDS011;22383;51.114;13.666;2022-07-30T20:09:53;20.23;;;16.63;;
36353;SDS011;22383;51.114;13.666;2022-07-30T20:12:21;19.95;;;17.48;;
36353;SDS011;22383;51.114;13.666;2022-07-30T20:14:50;19.05;;;17.05;;
36353;SDS011;22383;51.114;13.666;2022-07-30T20:17:17;24.83;;;18.15;;
36353;SDS011;22383;51.114;13.666;2022-07-30T20:19:45;20.63;;;17.70;;
36353;SDS011;22383;51.114;13.666;2022-07-30T20:22:14;25.20;;;17.40;;
36353;SDS011;22383;51.114;13.666;2022-07-30T20:24:44;19.95;;;17.42;;
36353;SDS011;22383;51.114;13.666;2022-07-30T20:27:14;22.50;;;17.52;;
36353;SDS011;22383;51.114;13.666;2022-07-30T20:30:02;21.13;;;17.58;;
36353;SDS011;22383;51.114;13.666;2022-07-30T20:32:30;21.77;;;18.15;;
36353;SDS011;22383;51.114;13.666;2022-07-30T20:34:57;27.00;;;18.92;;
36353;SDS011;22383;51.114;13.666;2022-07-30T20:39:53;21.05;;;17.17;;
36353;SDS011;22383;51.114;13.666;2022-07-30T20:42:22;23.15;;;18.77;;
36353;SDS011;22383;51.114;13.666;2022-07-30T20:44:50;19.52;;;17.20;;
36353;SDS011;22383;51.114;13.666;2022-07-30T20:47:23;20.67;;;17.88;;
36353;SDS011;22383;51.114;13.666;2022-07-30T20:50:06;22.60;;;18.85;;
36353;SDS011;22383;51.114;13.666;2022-07-30T20:52:36;22.55;;;19.35;;
36353;SDS011;22383;51.114;13.666;2022-07-30T20:55:14;25.05;;;20.10;;
36353;SDS011;22383;51.114;13.666;2022-07-30T20:57:48;22.48;;;18.40;;
36353;SDS011;22383;51.114;13.666;2022-07-30T21:00:27;22.17;;;18.58;;
36353;SDS011;22383;51.114;13.666;2022-07-30T21:02:55;20.98;;;18.63;;
36353;SDS011;22383;51.114;13.666;2022-07-30T21:07:53;22.33;;;17.75;;
36353;SDS011;22383;51.114;13.666;2022-07-30T21:10:21;24.23;;;18.92;;
36353;SDS011;22383;51.114;13.666;2022-07-30T21:12:49;21.67;;;19.02;;
36353;SDS011;22383;51.114;13.666;2022-07-30T21:15:36;20.52;;;18.30;;
36353;SDS011;22383;51.114;13.666;2022-07-30T21:18:24;21.90;;;18.30;;
36353;SDS011;22383;51.114;13.666;2022-07-30T21:20:52;21.85;;;19.65;;
36353;SDS011;22383;51.114;13.666;2022-07-30T21:23:22;21.45;;;17.52;;
36353;SDS011;22383;51.114;13.666;2022-07-30T21:28:29;19.67;;;16.83;;
36353;SDS011;22383;51.114;13.666;2022-07-30T21:31:02;19.63;;;16.65;;
36353;SDS011;22383;51.114;13.666;2022-07-30T21:33:34;27.30;;;16.95;;
36353;SDS011;22383;51.114;13.666;2022-07-30T21:36:03;19.27;;;15.85;;
36353;SDS011;22383;51.114;13.666;2022-07-30T21:42:16;18.52;;;15.98;;
36353;SDS011;22383;51.114;13.666;2022-07-30T21:44:51;19.25;;;16.15;;
36353;SDS011;22383;51.114;13.666;2022-07-30T21:47:19;18.17;;;16.05;;
36353;SDS011;22383;51.114;13.666;2022-07-30T21:49:46;19.48;;;15.20;;
36353;SDS011;22383;51.114;13.666;2022-07-30T21:52:14;19.80;;;15.95;;
36353;SDS011;22383;51.114;13.666;2022-07-30T21:54:41;17.63;;;15.73;;
36353;SDS011;22383;51.114;13.666;2022-07-30T21:57:32;18.17;;;15.88;;
36353;SDS011;22383;51.114;13.666;2022-07-30T22:00:04;18.98;;;16.08;;
36353;SDS011;22383;51.114;13.666;2022-07-30T22:02:37;22.13;;;15.68;;
36353;SDS011;22383;51.114;13.666;2022-07-30T22:05:19;18.38;;;16.48;;
36353;SDS011;22383;51.114;13.666;2022-07-30T22:07:49;19.45;;;15.88;;
36353;SDS011;22383;51.114;13.666;2022-07-30T22:10:16;20.58;;;15.75;;
36353;SDS011;22383;51.114;13.666;2022-07-30T22:12:47;20.15;;;16.08;;
36353;SDS011;22383;51.114;13.666;2022-07-30T22:15:16;19.85;;;17.70;;
36353;SDS011;22383;51.114;13.666;2022-07-30T22:17:44;19.77;;;17.63;;
36353;SDS011;22383;51.114;13.666;2022-07-30T22:20:27;21.85;;;17.38;;
36353;SDS011;22383;51.114;13.666;2022-07-30T22:22:56;19.90;;;16.92;;
36353;SDS011;22383;51.114;13.666;2022-07-30T22:25:30;19.38;;;16.05;;
36353;SDS011;22383;51.114;13.666;2022-07-30T22:28:11;19.73;;;16.65;;
36353;SDS011;22383;51.114;13.666;2022-07-30T22:30:42;20.05;;;17.10;;
36353;SDS011;22383;51.114;13.666;2022-07-30T22:33:11;20.55;;;17.05;;
36353;SDS011;22383;51.114;13.666;2022-07-30T22:35:44;20.25;;;16.55;;
36353;SDS011;22383;51.114;13.666;2022-07-30T22:38:15;20.23;;;17.25;;
36353;SDS011;22383;51.114;13.666;2022-07-30T22:40:45;20.17;;;17.17;;
36353;SDS011;22383;51.114;13.666;2022-07-30T22:43:15;21.13;;;17.48;;
36353;SDS011;22383;51.114;13.666;2022-07-30T22:45:42;19.27;;;16.75;;
36353;SDS011;22383;51.114;13.666;2022-07-30T22:48:16;20.98;;;18.20;;
36353;SDS011;22383;51.114;13.666;2022-07-30T22:50:51;24.25;;;18.13;;
36353;SDS011;22383;51.114;13.666;2022-07-30T22:56:06;19.02;;;16.98;;
36353;SDS011;22383;51.114;13.666;2022-07-30T22:58:41;20.70;;;18.05;;
36353;SDS011;22383;51.114;13.666;2022-07-30T23:01:08;22.20;;;17.30;;
36353;SDS011;22383;51.114;13.666;2022-07-30T23:03:36;21.08;;;17.65;;
36353;SDS011;22383;51.114;13.666;2022-07-30T23:06:04;21.65;;;17.83;;
36353;SDS011;22383;51.114;13.666;2022-07-30T23:08:32;20.23;;;18.10;;
36353;SDS011;22383;51.114;13.666;2022-07-30T23:10:59;23.48;;;18.25;;
36353;SDS011;22383;51.114;13.666;2022-07-30T23:13:27;20.17;;;17.63;;
36353;SDS011;22383;51.114;13.666;2022-07-30T23:15:55;22.25;;;18.48;;
36353;SDS011;22383;51.114;13.666;2022-07-30T23:18:22;21.35;;;18.02;;
36353;SDS011;22383;51.114;13.666;2022-07-30T23:20:49;20.95;;;17.75;;
36353;SDS011;22383;51.114;13.666;2022-07-30T23:23:16;24.08;;;18.58;;
36353;SDS011;22383;51.114;13.666;2022-07-30T23:25:44;22.38;;;18.00;;
36353;SDS011;22383;51.114;13.666;2022-07-30T23:28:11;20.65;;;18.45;;
36353;SDS011;22383;51.114;13.666;2022-07-30T23:30:38;22.42;;;18.45;;
36353;SDS011;22383;51.114;13.666;2022-07-30T23:33:05;19.90;;;17.80;;
36353;SDS011;22383;51.114;13.666;2022-07-30T23:35:33;24.25;;;17.98;;
36353;SDS011;22383;51.114;13.666;2022-07-30T23:38:00;20.92;;;17.70;;
36353;SDS011;22383;51.114;13.666;2022-07-30T23:40:28;22.10;;;17.25;;